Ferry Kyoto2 — JI3701 — position and weather

sailwx.info

Track history (hours):
 
Tides and Currents Weather Stations Pressure Air Temp Water Temp Dewpoint Dewpoint Depression Visibility Wind Speed Wind Dir Waves Ship Positions

Ferry Kyoto2

Last reported at 2014-Aug-21 07:30 UTC. Time now 2014-Aug-21 08:17 UTC.
Position N 34°37' E 135°26'.

Length 167 m; draft 6 m.

Type: Passenger vessel. MMSI: 431301641.

Date/timePositionNaut miles runAvg speedWind from/ knotsBaromVisibWave heightAir tempDewpointWater temp
2014-Aug-21 07:30N 34°37' E 135°26'0 0.0
2014-Aug-21 06:30N 34°37' E 135°26'0 0.0
2014-Aug-21 05:30N 34°37' E 135°26'0 0.0
2014-Aug-21 04:33N 34°37' E 135°26'0 0.0
2014-Aug-21 03:33N 34°37' E 135°26'0 0.0
2014-Aug-21 02:33N 34°37' E 135°26'0 0.0
2014-Aug-21 01:33N 34°37' E 135°26'0 0.0
2014-Aug-21 00:33N 34°37' E 135°26'0 0.0
2014-Aug-20 23:33N 34°37' E 135°26'9 9.0
2014-Aug-20 22:33N 34°36' E 135°15'1717.2
2014-Aug-20 21:33N 34°35' E 134°54'11018.4
2014-Aug-20 15:33N 34°02' E 132°47'2321.4
2014-Aug-20 14:29N 33°47' E 132°26'18 0.9
2014-Aug-19 18:34N 33°59' E 132°43'9918.2
2014-Aug-19 13:08N 34°30' E 134°36'1221.8
2014-Aug-19 12:33N 34°35' E 134°50'2020.4
2014-Aug-19 11:33N 34°36' E 135°15'9 8.7
2014-Aug-19 10:30N 34°37' E 135°26'0 0.0
2014-Aug-19 09:30N 34°37' E 135°26'0 0.0
2014-Aug-19 08:30N 34°37' E 135°26'0 0.0
2014-Aug-19 07:30N 34°37' E 135°26'0 0.0
2014-Aug-19 06:30N 34°37' E 135°26'0 0.0
2014-Aug-19 05:30N 34°37' E 135°26'0 0.0
2014-Aug-19 04:30N 34°37' E 135°26'0 0.0
2014-Aug-19 03:30N 34°37' E 135°26'0 0.0
2014-Aug-19 02:24N 34°37' E 135°26'0 0.0
2014-Aug-19 01:30N 34°37' E 135°26'0 0.0
2014-Aug-19 00:30N 34°37' E 135°26'0 0.1
2014-Aug-18 23:33N 34°37' E 135°26'1110.7
2014-Aug-18 22:33N 34°35' E 135°13'1918.7
2014-Aug-18 21:33N 34°34' E 134°50'10818.0
2014-Aug-18 15:34N 34°01' E 132°46'2421.8
2014-Aug-18 14:27N 33°46' E 132°23'19 1.0
2014-Aug-17 18:33N 33°57' E 132°42'11218.6
2014-Aug-17 12:32N 34°34' E 134°49'1920.0
2014-Aug-17 11:33N 34°36' E 135°13'11 9.1
2014-Aug-17 10:22N 34°37' E 135°26'0 0.0
2014-Aug-17 09:28N 34°37' E 135°26'0 0.0
2014-Aug-17 08:28N 34°37' E 135°26'0 0.0
2014-Aug-17 07:28N 34°37' E 135°26'0 0.0
2014-Aug-17 06:28N 34°37' E 135°26'0 0.0
2014-Aug-17 05:22N 34°37' E 135°26'0 0.0
2014-Aug-17 04:28N 34°37' E 135°26'0 0.0
2014-Aug-17 03:28N 34°37' E 135°26'0 0.0
2014-Aug-17 02:28N 34°37' E 135°26'0 0.0
2014-Aug-17 01:22N 34°37' E 135°26'0 0.0
2014-Aug-17 00:28N 34°37' E 135°26'0 0.0
2014-Aug-16 23:28N 34°37' E 135°26'8 9.2
2014-Aug-16 22:33N 34°35' E 135°16'1919.0
2014-Aug-16 21:33N 34°35' E 134°53'10818.0
2014-Aug-16 15:33N 34°03' E 132°48'2522.9
2014-Aug-16 14:27N 33°46' E 132°25'19 1.0
2014-Aug-15 18:33N 33°59' E 132°43'10918.2
2014-Aug-15 12:34N 34°34' E 134°48'2121.1
2014-Aug-15 11:33N 34°36' E 135°13'1010.4
2014-Aug-15 10:33N 34°37' E 135°26'0 0.0
2014-Aug-15 09:33N 34°37' E 135°26'0 0.0
2014-Aug-15 08:33N 34°37' E 135°26'0 0.0
2014-Aug-15 07:27N 34°37' E 135°26'0 0.0
2014-Aug-15 06:27N 34°37' E 135°26'0 0.0
2014-Aug-15 05:33N 34°37' E 135°26'0 0.0
2014-Aug-15 04:33N 34°37' E 135°26'0 0.0
2014-Aug-15 03:33N 34°37' E 135°26'0 0.0
2014-Aug-15 02:33N 34°37' E 135°26'0 0.0
2014-Aug-15 01:21N 34°37' E 135°26'0 0.0
2014-Aug-15 00:33N 34°37' E 135°26'0 0.0
2014-Aug-14 23:33N 34°37' E 135°26'9 8.9
2014-Aug-14 22:33N 34°35' E 135°15'2019.5
2014-Aug-14 21:33N 34°34' E 134°52'3 0.1
2014-Aug-13 12:33N 34°34' E 134°48'2221.8
2014-Aug-13 11:33N 34°36' E 135°14'10 9.9
2014-Aug-13 10:32N 34°37' E 135°26'0 0.0
2014-Aug-13 09:32N 34°37' E 135°26'0 0.0
2014-Aug-13 08:32N 34°37' E 135°26'0 0.0
2014-Aug-13 07:32N 34°37' E 135°26'0 0.0
2014-Aug-13 05:32N 34°37' E 135°26'0 0.0
2014-Aug-13 04:32N 34°37' E 135°26'0 0.0
2014-Aug-13 03:20N 34°37' E 135°26'0 0.0
2014-Aug-13 02:32N 34°37' E 135°26'0 0.0
2014-Aug-13 01:32N 34°37' E 135°26'0 0.0
2014-Aug-13 00:32N 34°37' E 135°26'0 0.0
2014-Aug-12 23:32N 34°37' E 135°26'1111.5
2014-Aug-12 22:33N 34°35' E 135°12'1818.2
2014-Aug-12 21:33N 34°34' E 134°50'2 0.0
2014-Aug-11 12:34N 34°34' E 134°49'2221.9
2014-Aug-11 11:33N 34°37' E 135°15'9 8.6
2014-Aug-11 10:30N 34°37' E 135°26'0 0.0
2014-Aug-11 09:30N 34°37' E 135°26'0 0.0
2014-Aug-11 08:24N 34°37' E 135°26'  
Track history (hours):
 
Tides and Currents Weather Stations Pressure Air Temp Water Temp Dewpoint Dewpoint Depression Visibility Wind Speed Wind Dir Waves Ship Positions

Ferry Kyoto2

Last reported at 2014-Aug-21 07:30 UTC. Time now 2014-Aug-21 08:17 UTC.
Position N 34°37' E 135°26'.

Length 167 m; draft 6 m.

Type: Passenger vessel. MMSI: 431301641.

Date/timePositionNaut miles runAvg speedWind from/ knotsBaromVisibWave heightAir tempDewpointWater temp
2014-Aug-21 07:30N 34°37' E 135°26'0 0.0
2014-Aug-21 06:30N 34°37' E 135°26'0 0.0
2014-Aug-21 05:30N 34°37' E 135°26'0 0.0
2014-Aug-21 04:33N 34°37' E 135°26'0 0.0
2014-Aug-21 03:33N 34°37' E 135°26'0 0.0
2014-Aug-21 02:33N 34°37' E 135°26'0 0.0
2014-Aug-21 01:33N 34°37' E 135°26'0 0.0
2014-Aug-21 00:33N 34°37' E 135°26'0 0.0
2014-Aug-20 23:33N 34°37' E 135°26'9 9.0
2014-Aug-20 22:33N 34°36' E 135°15'1717.2
2014-Aug-20 21:33N 34°35' E 134°54'11018.4
2014-Aug-20 15:33N 34°02' E 132°47'2321.4
2014-Aug-20 14:29N 33°47' E 132°26'18 0.9
2014-Aug-19 18:34N 33°59' E 132°43'9918.2
2014-Aug-19 13:08N 34°30' E 134°36'1221.8
2014-Aug-19 12:33N 34°35' E 134°50'2020.4
2014-Aug-19 11:33N 34°36' E 135°15'9 8.7
2014-Aug-19 10:30N 34°37' E 135°26'0 0.0
2014-Aug-19 09:30N 34°37' E 135°26'0 0.0
2014-Aug-19 08:30N 34°37' E 135°26'0 0.0
2014-Aug-19 07:30N 34°37' E 135°26'0 0.0
2014-Aug-19 06:30N 34°37' E 135°26'0 0.0
2014-Aug-19 05:30N 34°37' E 135°26'0 0.0
2014-Aug-19 04:30N 34°37' E 135°26'0 0.0
2014-Aug-19 03:30N 34°37' E 135°26'0 0.0
2014-Aug-19 02:24N 34°37' E 135°26'0 0.0
2014-Aug-19 01:30N 34°37' E 135°26'0 0.0
2014-Aug-19 00:30N 34°37' E 135°26'0 0.1
2014-Aug-18 23:33N 34°37' E 135°26'1110.7
2014-Aug-18 22:33N 34°35' E 135°13'1918.7
2014-Aug-18 21:33N 34°34' E 134°50'10818.0
2014-Aug-18 15:34N 34°01' E 132°46'2421.8
2014-Aug-18 14:27N 33°46' E 132°23'19 1.0
2014-Aug-17 18:33N 33°57' E 132°42'11218.6
2014-Aug-17 12:32N 34°34' E 134°49'1920.0
2014-Aug-17 11:33N 34°36' E 135°13'11 9.1
2014-Aug-17 10:22N 34°37' E 135°26'0 0.0
2014-Aug-17 09:28N 34°37' E 135°26'0 0.0
2014-Aug-17 08:28N 34°37' E 135°26'0 0.0
2014-Aug-17 07:28N 34°37' E 135°26'0 0.0
2014-Aug-17 06:28N 34°37' E 135°26'0 0.0
2014-Aug-17 05:22N 34°37' E 135°26'0 0.0
2014-Aug-17 04:28N 34°37' E 135°26'0 0.0
2014-Aug-17 03:28N 34°37' E 135°26'0 0.0
2014-Aug-17 02:28N 34°37' E 135°26'0 0.0
2014-Aug-17 01:22N 34°37' E 135°26'0 0.0
2014-Aug-17 00:28N 34°37' E 135°26'0 0.0
2014-Aug-16 23:28N 34°37' E 135°26'8 9.2
2014-Aug-16 22:33N 34°35' E 135°16'1919.0
2014-Aug-16 21:33N 34°35' E 134°53'10818.0
2014-Aug-16 15:33N 34°03' E 132°48'2522.9
2014-Aug-16 14:27N 33°46' E 132°25'19 1.0
2014-Aug-15 18:33N 33°59' E 132°43'10918.2
2014-Aug-15 12:34N 34°34' E 134°48'2121.1
2014-Aug-15 11:33N 34°36' E 135°13'1010.4
2014-Aug-15 10:33N 34°37' E 135°26'0 0.0
2014-Aug-15 09:33N 34°37' E 135°26'0 0.0
2014-Aug-15 08:33N 34°37' E 135°26'0 0.0
2014-Aug-15 07:27N 34°37' E 135°26'0 0.0
2014-Aug-15 06:27N 34°37' E 135°26'0 0.0
2014-Aug-15 05:33N 34°37' E 135°26'0 0.0
2014-Aug-15 04:33N 34°37' E 135°26'0 0.0
2014-Aug-15 03:33N 34°37' E 135°26'0 0.0
2014-Aug-15 02:33N 34°37' E 135°26'0 0.0
2014-Aug-15 01:21N 34°37' E 135°26'0 0.0
2014-Aug-15 00:33N 34°37' E 135°26'0 0.0
2014-Aug-14 23:33N 34°37' E 135°26'9 8.9
2014-Aug-14 22:33N 34°35' E 135°15'2019.5
2014-Aug-14 21:33N 34°34' E 134°52'3 0.1
2014-Aug-13 12:33N 34°34' E 134°48'2221.8
2014-Aug-13 11:33N 34°36' E 135°14'10 9.9
2014-Aug-13 10:32N 34°37' E 135°26'0 0.0
2014-Aug-13 09:32N 34°37' E 135°26'0 0.0
2014-Aug-13 08:32N 34°37' E 135°26'0 0.0
2014-Aug-13 07:32N 34°37' E 135°26'0 0.0
2014-Aug-13 05:32N 34°37' E 135°26'0 0.0
2014-Aug-13 04:32N 34°37' E 135°26'0 0.0
2014-Aug-13 03:20N 34°37' E 135°26'0 0.0
2014-Aug-13 02:32N 34°37' E 135°26'0 0.0
2014-Aug-13 01:32N 34°37' E 135°26'0 0.0
2014-Aug-13 00:32N 34°37' E 135°26'0 0.0
2014-Aug-12 23:32N 34°37' E 135°26'1111.5
2014-Aug-12 22:33N 34°35' E 135°12'1818.2
2014-Aug-12 21:33N 34°34' E 134°50'2 0.0
2014-Aug-11 12:34N 34°34' E 134°49'2221.9
2014-Aug-11 11:33N 34°37' E 135°15'9 8.6
2014-Aug-11 10:30N 34°37' E 135°26'0 0.0
2014-Aug-11 09:30N 34°37' E 135°26'0 0.0
2014-Aug-11 08:24N 34°37' E 135°26'  

Dump ship's entire track history